sensor_id;sensor_type;location;lat;lon;timestamp;P1;durP1;ratioP1;P2;durP2;ratioP2
6979;SDS011;3530;52.832;10.680;2024-02-16T00:00:16;4.68;;;4.00;;
6979;SDS011;3530;52.832;10.680;2024-02-16T00:03:02;4.88;;;3.53;;
6979;SDS011;3530;52.832;10.680;2024-02-16T00:05:47;4.22;;;3.90;;
6979;SDS011;3530;52.832;10.680;2024-02-16T00:08:33;3.42;;;3.20;;
6979;SDS011;3530;52.832;10.680;2024-02-16T00:11:19;4.38;;;3.53;;
6979;SDS011;3530;52.832;10.680;2024-02-16T00:14:05;4.15;;;3.80;;
6979;SDS011;3530;52.832;10.680;2024-02-16T00:16:51;4.20;;;3.28;;
6979;SDS011;3530;52.832;10.680;2024-02-16T00:19:37;3.13;;;2.92;;
6979;SDS011;3530;52.832;10.680;2024-02-16T00:22:23;4.00;;;3.67;;
6979;SDS011;3530;52.832;10.680;2024-02-16T00:25:08;4.07;;;3.50;;
6979;SDS011;3530;52.832;10.680;2024-02-16T00:27:54;3.42;;;3.13;;
6979;SDS011;3530;52.832;10.680;2024-02-16T00:30:40;3.30;;;3.00;;
6979;SDS011;3530;52.832;10.680;2024-02-16T00:33:26;5.07;;;3.88;;
6979;SDS011;3530;52.832;10.680;2024-02-16T00:36:14;4.30;;;3.25;;
6979;SDS011;3530;52.832;10.680;2024-02-16T00:39:00;5.50;;;3.90;;
6979;SDS011;3530;52.832;10.680;2024-02-16T00:41:45;4.07;;;3.67;;
6979;SDS011;3530;52.832;10.680;2024-02-16T00:44:31;4.95;;;3.38;;
6979;SDS011;3530;52.832;10.680;2024-02-16T00:47:17;3.70;;;3.50;;
6979;SDS011;3530;52.832;10.680;2024-02-16T00:50:03;3.42;;;3.13;;
6979;SDS011;3530;52.832;10.680;2024-02-16T00:52:50;3.90;;;3.50;;
6979;SDS011;3530;52.832;10.680;2024-02-16T00:55:36;4.22;;;3.45;;
6979;SDS011;3530;52.832;10.680;2024-02-16T00:58:22;4.32;;;3.50;;
6979;SDS011;3530;52.832;10.680;2024-02-16T01:01:08;3.45;;;3.10;;
6979;SDS011;3530;52.832;10.680;2024-02-16T01:03:55;4.25;;;3.85;;
6979;SDS011;3530;52.832;10.680;2024-02-16T01:06:41;6.57;;;4.03;;
6979;SDS011;3530;52.832;10.680;2024-02-16T01:09:27;6.25;;;3.38;;
6979;SDS011;3530;52.832;10.680;2024-02-16T01:12:12;5.22;;;3.58;;
6979;SDS011;3530;52.832;10.680;2024-02-16T01:14:58;4.03;;;3.40;;
6979;SDS011;3530;52.832;10.680;2024-02-16T01:17:45;6.07;;;3.65;;
6979;SDS011;3530;52.832;10.680;2024-02-16T01:20:30;4.22;;;3.88;;
6979;SDS011;3530;52.832;10.680;2024-02-16T01:23:16;5.18;;;3.45;;
6979;SDS011;3530;52.832;10.680;2024-02-16T01:26:02;5.88;;;5.38;;
6979;SDS011;3530;52.832;10.680;2024-02-16T01:28:48;3.67;;;3.33;;
6979;SDS011;3530;52.832;10.680;2024-02-16T01:31:34;3.65;;;3.30;;
6979;SDS011;3530;52.832;10.680;2024-02-16T01:34:21;3.50;;;3.20;;
6979;SDS011;3530;52.832;10.680;2024-02-16T01:37:07;4.88;;;4.25;;
6979;SDS011;3530;52.832;10.680;2024-02-16T01:39:52;3.67;;;3.47;;
6979;SDS011;3530;52.832;10.680;2024-02-16T01:42:38;3.10;;;2.95;;
6979;SDS011;3530;52.832;10.680;2024-02-16T01:45:24;3.10;;;2.78;;
6979;SDS011;3530;52.832;10.680;2024-02-16T01:48:09;4.55;;;3.80;;
6979;SDS011;3530;52.832;10.680;2024-02-16T01:50:55;3.80;;;3.42;;
6979;SDS011;3530;52.832;10.680;2024-02-16T01:53:41;3.88;;;3.58;;
6979;SDS011;3530;52.832;10.680;2024-02-16T01:56:27;4.10;;;3.35;;
6979;SDS011;3530;52.832;10.680;2024-02-16T01:59:13;5.28;;;3.75;;
6979;SDS011;3530;52.832;10.680;2024-02-16T02:01:59;5.07;;;3.63;;
6979;SDS011;3530;52.832;10.680;2024-02-16T02:04:45;5.80;;;3.83;;
6979;SDS011;3530;52.832;10.680;2024-02-16T02:07:30;3.45;;;3.15;;
6979;SDS011;3530;52.832;10.680;2024-02-16T02:10:16;3.58;;;3.05;;
6979;SDS011;3530;52.832;10.680;2024-02-16T02:13:02;5.13;;;2.95;;
6979;SDS011;3530;52.832;10.680;2024-02-16T02:15:47;4.97;;;4.15;;
6979;SDS011;3530;52.832;10.680;2024-02-16T02:18:33;7.32;;;4.13;;
6979;SDS011;3530;52.832;10.680;2024-02-16T02:21:19;4.63;;;4.22;;
6979;SDS011;3530;52.832;10.680;2024-02-16T02:24:04;4.70;;;3.55;;
6979;SDS011;3530;52.832;10.680;2024-02-16T02:26:50;4.53;;;3.80;;
6979;SDS011;3530;52.832;10.680;2024-02-16T02:29:36;4.22;;;3.75;;
6979;SDS011;3530;52.832;10.680;2024-02-16T02:32:21;7.85;;;4.93;;
6979;SDS011;3530;52.832;10.680;2024-02-16T02:35:07;6.28;;;4.60;;
6979;SDS011;3530;52.832;10.680;2024-02-16T02:37:54;6.15;;;5.30;;
6979;SDS011;3530;52.832;10.680;2024-02-16T02:40:39;4.18;;;3.78;;
6979;SDS011;3530;52.832;10.680;2024-02-16T02:43:25;5.18;;;4.68;;
6979;SDS011;3530;52.832;10.680;2024-02-16T02:46:14;5.00;;;4.60;;
6979;SDS011;3530;52.832;10.680;2024-02-16T02:49:03;4.85;;;3.97;;
6979;SDS011;3530;52.832;10.680;2024-02-16T02:51:49;5.35;;;4.20;;
6979;SDS011;3530;52.832;10.680;2024-02-16T02:54:34;4.35;;;3.95;;
6979;SDS011;3530;52.832;10.680;2024-02-16T02:57:20;4.47;;;3.53;;
6979;SDS011;3530;52.832;10.680;2024-02-16T03:00:06;5.18;;;4.68;;
6979;SDS011;3530;52.832;10.680;2024-02-16T03:02:55;4.90;;;4.50;;
6979;SDS011;3530;52.832;10.680;2024-02-16T03:05:42;4.15;;;3.83;;
6979;SDS011;3530;52.832;10.680;2024-02-16T03:08:27;4.57;;;4.18;;
6979;SDS011;3530;52.832;10.680;2024-02-16T03:11:13;4.68;;;4.28;;
6979;SDS011;3530;52.832;10.680;2024-02-16T03:13:59;3.72;;;3.35;;
6979;SDS011;3530;52.832;10.680;2024-02-16T03:16:44;3.42;;;3.13;;
6979;SDS011;3530;52.832;10.680;2024-02-16T03:19:30;5.75;;;4.10;;
6979;SDS011;3530;52.832;10.680;2024-02-16T03:22:16;5.68;;;4.53;;
6979;SDS011;3530;52.832;10.680;2024-02-16T03:25:01;4.82;;;4.43;;
6979;SDS011;3530;52.832;10.680;2024-02-16T03:27:47;6.70;;;4.68;;
6979;SDS011;3530;52.832;10.680;2024-02-16T03:30:33;4.80;;;4.18;;
6979;SDS011;3530;52.832;10.680;2024-02-16T03:33:20;4.32;;;3.83;;
6979;SDS011;3530;52.832;10.680;2024-02-16T03:36:06;5.97;;;4.20;;
6979;SDS011;3530;52.832;10.680;2024-02-16T03:38:51;6.63;;;4.20;;
6979;SDS011;3530;52.832;10.680;2024-02-16T03:41:37;5.65;;;4.43;;
6979;SDS011;3530;52.832;10.680;2024-02-16T03:44:23;5.90;;;4.43;;
6979;SDS011;3530;52.832;10.680;2024-02-16T03:47:08;3.90;;;3.65;;
6979;SDS011;3530;52.832;10.680;2024-02-16T03:49:54;7.43;;;4.38;;
6979;SDS011;3530;52.832;10.680;2024-02-16T03:52:40;4.78;;;4.28;;
6979;SDS011;3530;52.832;10.680;2024-02-16T03:55:25;6.50;;;4.13;;
6979;SDS011;3530;52.832;10.680;2024-02-16T03:58:11;4.10;;;3.80;;
6979;SDS011;3530;52.832;10.680;2024-02-16T04:00:57;4.93;;;4.53;;
6979;SDS011;3530;52.832;10.680;2024-02-16T04:03:43;5.00;;;3.63;;
6979;SDS011;3530;52.832;10.680;2024-02-16T04:06:29;7.20;;;4.47;;
6979;SDS011;3530;52.832;10.680;2024-02-16T04:09:15;4.70;;;4.30;;
6979;SDS011;3530;52.832;10.680;2024-02-16T04:12:01;5.20;;;4.28;;
6979;SDS011;3530;52.832;10.680;2024-02-16T04:14:47;5.15;;;4.13;;
6979;SDS011;3530;52.832;10.680;2024-02-16T04:17:32;5.82;;;4.00;;
6979;SDS011;3530;52.832;10.680;2024-02-16T04:20:18;5.18;;;3.83;;
6979;SDS011;3530;52.832;10.680;2024-02-16T04:23:04;4.05;;;3.75;;
6979;SDS011;3530;52.832;10.680;2024-02-16T04:25:50;4.03;;;3.65;;
6979;SDS011;3530;52.832;10.680;2024-02-16T04:28:36;4.40;;;4.00;;
6979;SDS011;3530;52.832;10.680;2024-02-16T04:31:21;4.80;;;3.72;;
6979;SDS011;3530;52.832;10.680;2024-02-16T04:34:07;6.00;;;4.00;;
6979;SDS011;3530;52.832;10.680;2024-02-16T04:36:54;4.03;;;3.72;;
6979;SDS011;3530;52.832;10.680;2024-02-16T04:39:39;4.50;;;3.97;;
6979;SDS011;3530;52.832;10.680;2024-02-16T04:42:25;4.30;;;3.83;;
6979;SDS011;3530;52.832;10.680;2024-02-16T04:45:11;4.93;;;3.75;;
6979;SDS011;3530;52.832;10.680;2024-02-16T04:48:01;4.95;;;3.70;;
6979;SDS011;3530;52.832;10.680;2024-02-16T04:50:48;3.25;;;3.05;;
6979;SDS011;3530;52.832;10.680;2024-02-16T04:53:33;4.55;;;4.22;;
6979;SDS011;3530;52.832;10.680;2024-02-16T04:56:19;4.15;;;3.67;;
6979;SDS011;3530;52.832;10.680;2024-02-16T04:59:05;3.97;;;3.40;;
6979;SDS011;3530;52.832;10.680;2024-02-16T05:01:51;4.20;;;3.83;;
6979;SDS011;3530;52.832;10.680;2024-02-16T05:04:37;5.32;;;4.57;;
6979;SDS011;3530;52.832;10.680;2024-02-16T05:07:22;4.35;;;4.00;;
6979;SDS011;3530;52.832;10.680;2024-02-16T05:10:08;3.88;;;3.60;;
6979;SDS011;3530;52.832;10.680;2024-02-16T05:12:54;4.40;;;3.80;;
6979;SDS011;3530;52.832;10.680;2024-02-16T05:15:41;3.75;;;3.40;;
6979;SDS011;3530;52.832;10.680;2024-02-16T05:18:26;3.78;;;3.53;;
6979;SDS011;3530;52.832;10.680;2024-02-16T05:21:13;3.72;;;3.40;;
6979;SDS011;3530;52.832;10.680;2024-02-16T05:23:58;3.63;;;3.33;;
6979;SDS011;3530;52.832;10.680;2024-02-16T05:26:44;6.57;;;3.22;;
6979;SDS011;3530;52.832;10.680;2024-02-16T05:29:30;6.05;;;3.63;;
6979;SDS011;3530;52.832;10.680;2024-02-16T05:32:16;3.80;;;3.50;;
6979;SDS011;3530;52.832;10.680;2024-02-16T05:35:05;3.50;;;3.30;;
6979;SDS011;3530;52.832;10.680;2024-02-16T05:38:01;3.42;;;3.15;;
6979;SDS011;3530;52.832;10.680;2024-02-16T05:40:52;3.80;;;3.50;;
6979;SDS011;3530;52.832;10.680;2024-02-16T05:43:42;5.47;;;3.42;;
6979;SDS011;3530;52.832;10.680;2024-02-16T05:46:28;3.60;;;3.30;;
6979;SDS011;3530;52.832;10.680;2024-02-16T05:49:14;8.70;;;3.58;;
6979;SDS011;3530;52.832;10.680;2024-02-16T05:52:03;4.32;;;3.13;;
6979;SDS011;3530;52.832;10.680;2024-02-16T05:55:06;5.75;;;3.40;;
6979;SDS011;3530;52.832;10.680;2024-02-16T05:57:52;3.80;;;3.50;;
6979;SDS011;3530;52.832;10.680;2024-02-16T06:00:38;3.80;;;3.40;;
6979;SDS011;3530;52.832;10.680;2024-02-16T06:03:23;4.50;;;3.28;;
6979;SDS011;3530;52.832;10.680;2024-02-16T06:06:09;4.45;;;3.72;;
6979;SDS011;3530;52.832;10.680;2024-02-16T06:08:55;3.97;;;3.00;;
6979;SDS011;3530;52.832;10.680;2024-02-16T06:11:40;3.42;;;3.13;;
6979;SDS011;3530;52.832;10.680;2024-02-16T06:14:26;3.85;;;3.55;;
6979;SDS011;3530;52.832;10.680;2024-02-16T06:17:12;5.47;;;3.85;;
6979;SDS011;3530;52.832;10.680;2024-02-16T06:19:59;14.50;;;5.20;;
6979;SDS011;3530;52.832;10.680;2024-02-16T06:22:45;10.15;;;4.93;;
6979;SDS011;3530;52.832;10.680;2024-02-16T06:25:31;5.15;;;3.33;;
6979;SDS011;3530;52.832;10.680;2024-02-16T06:28:17;6.18;;;4.00;;
6979;SDS011;3530;52.832;10.680;2024-02-16T06:31:03;6.47;;;3.88;;
6979;SDS011;3530;52.832;10.680;2024-02-16T06:33:49;4.68;;;3.20;;
6979;SDS011;3530;52.832;10.680;2024-02-16T06:36:35;3.78;;;3.17;;
6979;SDS011;3530;52.832;10.680;2024-02-16T06:39:21;4.80;;;3.70;;
6979;SDS011;3530;52.832;10.680;2024-02-16T06:42:06;4.00;;;3.60;;
6979;SDS011;3530;52.832;10.680;2024-02-16T06:44:52;4.60;;;4.20;;
6979;SDS011;3530;52.832;10.680;2024-02-16T06:47:38;4.97;;;3.72;;
6979;SDS011;3530;52.832;10.680;2024-02-16T06:50:23;4.78;;;3.83;;
6979;SDS011;3530;52.832;10.680;2024-02-16T06:53:09;5.20;;;3.40;;
6979;SDS011;3530;52.832;10.680;2024-02-16T06:55:54;5.97;;;4.05;;
6979;SDS011;3530;52.832;10.680;2024-02-16T06:58:40;3.63;;;3.33;;
6979;SDS011;3530;52.832;10.680;2024-02-16T07:01:26;7.75;;;3.85;;
6979;SDS011;3530;52.832;10.680;2024-02-16T07:04:14;4.72;;;3.17;;
6979;SDS011;3530;52.832;10.680;2024-02-16T07:07:00;5.72;;;3.22;;
6979;SDS011;3530;52.832;10.680;2024-02-16T07:09:46;4.03;;;3.38;;
6979;SDS011;3530;52.832;10.680;2024-02-16T07:12:31;7.20;;;3.60;;
6979;SDS011;3530;52.832;10.680;2024-02-16T07:15:19;4.82;;;3.45;;
6979;SDS011;3530;52.832;10.680;2024-02-16T07:18:04;3.45;;;3.05;;
6979;SDS011;3530;52.832;10.680;2024-02-16T07:20:50;4.45;;;2.90;;
6979;SDS011;3530;52.832;10.680;2024-02-16T07:23:36;3.08;;;2.70;;
6979;SDS011;3530;52.832;10.680;2024-02-16T07:26:22;5.97;;;3.85;;
6979;SDS011;3530;52.832;10.680;2024-02-16T07:29:07;3.38;;;3.08;;
6979;SDS011;3530;52.832;10.680;2024-02-16T07:31:53;4.93;;;3.53;;
6979;SDS011;3530;52.832;10.680;2024-02-16T07:34:39;3.78;;;2.90;;
6979;SDS011;3530;52.832;10.680;2024-02-16T07:37:24;5.68;;;3.47;;
6979;SDS011;3530;52.832;10.680;2024-02-16T07:40:10;3.38;;;3.05;;
6979;SDS011;3530;52.832;10.680;2024-02-16T07:42:56;3.67;;;3.35;;
6979;SDS011;3530;52.832;10.680;2024-02-16T07:45:42;3.72;;;3.08;;
6979;SDS011;3530;52.832;10.680;2024-02-16T07:48:28;8.23;;;3.25;;
6979;SDS011;3530;52.832;10.680;2024-02-16T07:51:14;2.83;;;2.67;;
6979;SDS011;3530;52.832;10.680;2024-02-16T07:53:59;3.10;;;2.90;;
6979;SDS011;3530;52.832;10.680;2024-02-16T07:56:45;3.92;;;3.47;;
6979;SDS011;3530;52.832;10.680;2024-02-16T07:59:31;4.22;;;2.90;;
6979;SDS011;3530;52.832;10.680;2024-02-16T08:02:16;3.80;;;3.10;;
6979;SDS011;3530;52.832;10.680;2024-02-16T08:05:03;3.17;;;2.75;;
6979;SDS011;3530;52.832;10.680;2024-02-16T08:07:48;2.85;;;2.65;;
6979;SDS011;3530;52.832;10.680;2024-02-16T08:10:34;3.47;;;2.60;;
6979;SDS011;3530;52.832;10.680;2024-02-16T08:13:21;3.83;;;2.80;;
6979;SDS011;3530;52.832;10.680;2024-02-16T08:16:08;2.70;;;2.42;;
6979;SDS011;3530;52.832;10.680;2024-02-16T08:18:53;3.83;;;2.30;;
6979;SDS011;3530;52.832;10.680;2024-02-16T08:21:39;4.88;;;2.47;;
6979;SDS011;3530;52.832;10.680;2024-02-16T08:24:25;4.75;;;2.40;;
6979;SDS011;3530;52.832;10.680;2024-02-16T08:27:11;2.92;;;2.72;;
6979;SDS011;3530;52.832;10.680;2024-02-16T08:29:58;3.22;;;2.63;;
6979;SDS011;3530;52.832;10.680;2024-02-16T08:32:43;2.80;;;2.60;;
6979;SDS011;3530;52.832;10.680;2024-02-16T08:35:29;3.53;;;2.70;;
6979;SDS011;3530;52.832;10.680;2024-02-16T08:38:15;3.00;;;2.80;;
6979;SDS011;3530;52.832;10.680;2024-02-16T08:41:01;4.68;;;2.78;;
6979;SDS011;3530;52.832;10.680;2024-02-16T08:43:47;3.20;;;2.97;;
6979;SDS011;3530;52.832;10.680;2024-02-16T08:46:32;3.70;;;2.47;;
6979;SDS011;3530;52.832;10.680;2024-02-16T08:49:18;4.63;;;2.63;;
6979;SDS011;3530;52.832;10.680;2024-02-16T08:54:51;3.67;;;2.70;;
6979;SDS011;3530;52.832;10.680;2024-02-16T08:57:37;3.05;;;2.63;;
6979;SDS011;3530;52.832;10.680;2024-02-16T09:00:23;2.97;;;2.67;;
6979;SDS011;3530;52.832;10.680;2024-02-16T09:03:10;4.10;;;2.70;;
6979;SDS011;3530;52.832;10.680;2024-02-16T09:05:56;2.83;;;2.63;;
6979;SDS011;3530;52.832;10.680;2024-02-16T09:08:42;2.60;;;2.40;;
6979;SDS011;3530;52.832;10.680;2024-02-16T09:11:27;2.90;;;2.40;;
6979;SDS011;3530;52.832;10.680;2024-02-16T09:14:13;4.50;;;2.50;;
6979;SDS011;3530;52.832;10.680;2024-02-16T09:16:59;3.42;;;2.50;;
6979;SDS011;3530;52.832;10.680;2024-02-16T09:19:44;3.97;;;2.50;;
6979;SDS011;3530;52.832;10.680;2024-02-16T09:22:30;2.80;;;2.60;;
6979;SDS011;3530;52.832;10.680;2024-02-16T09:25:16;2.28;;;2.15;;
6979;SDS011;3530;52.832;10.680;2024-02-16T09:28:01;2.25;;;2.13;;
6979;SDS011;3530;52.832;10.680;2024-02-16T09:30:47;2.92;;;2.60;;
6979;SDS011;3530;52.832;10.680;2024-02-16T09:33:33;3.85;;;2.88;;
6979;SDS011;3530;52.832;10.680;2024-02-16T09:36:19;2.53;;;2.33;;
6979;SDS011;3530;52.832;10.680;2024-02-16T09:39:04;2.83;;;2.63;;
6979;SDS011;3530;52.832;10.680;2024-02-16T09:41:51;2.88;;;2.70;;
6979;SDS011;3530;52.832;10.680;2024-02-16T09:44:37;3.95;;;2.30;;
6979;SDS011;3530;52.832;10.680;2024-02-16T09:47:23;2.85;;;2.65;;
6979;SDS011;3530;52.832;10.680;2024-02-16T09:50:11;3.92;;;2.83;;
6979;SDS011;3530;52.832;10.680;2024-02-16T09:52:57;3.47;;;3.17;;
6979;SDS011;3530;52.832;10.680;2024-02-16T09:55:44;3.70;;;2.22;;
6979;SDS011;3530;52.832;10.680;2024-02-16T09:58:30;2.60;;;2.40;;
6979;SDS011;3530;52.832;10.680;2024-02-16T10:01:19;2.85;;;2.65;;
6979;SDS011;3530;52.832;10.680;2024-02-16T10:04:08;3.65;;;2.65;;
6979;SDS011;3530;52.832;10.680;2024-02-16T10:06:54;4.68;;;2.47;;
6979;SDS011;3530;52.832;10.680;2024-02-16T10:09:40;5.13;;;2.53;;
6979;SDS011;3530;52.832;10.680;2024-02-16T10:12:25;3.15;;;2.88;;
6979;SDS011;3530;52.832;10.680;2024-02-16T10:15:11;2.67;;;2.47;;
6979;SDS011;3530;52.832;10.680;2024-02-16T10:18:00;2.42;;;2.25;;
6979;SDS011;3530;52.832;10.680;2024-02-16T10:20:52;2.65;;;2.45;;
6979;SDS011;3530;52.832;10.680;2024-02-16T10:23:37;3.00;;;2.55;;
6979;SDS011;3530;52.832;10.680;2024-02-16T10:26:23;3.80;;;2.40;;
6979;SDS011;3530;52.832;10.680;2024-02-16T10:29:10;3.22;;;2.20;;
6979;SDS011;3530;52.832;10.680;2024-02-16T10:31:59;2.95;;;2.25;;
6979;SDS011;3530;52.832;10.680;2024-02-16T10:34:45;2.15;;;2.05;;
6979;SDS011;3530;52.832;10.680;2024-02-16T10:37:31;3.45;;;2.50;;
6979;SDS011;3530;52.832;10.680;2024-02-16T10:40:18;2.40;;;2.30;;
6979;SDS011;3530;52.832;10.680;2024-02-16T10:43:05;2.50;;;2.30;;
6979;SDS011;3530;52.832;10.680;2024-02-16T10:45:51;2.35;;;2.15;;
6979;SDS011;3530;52.832;10.680;2024-02-16T10:48:38;2.70;;;2.47;;
6979;SDS011;3530;52.832;10.680;2024-02-16T10:51:30;2.70;;;2.50;;
6979;SDS011;3530;52.832;10.680;2024-02-16T10:54:22;4.00;;;2.75;;
6979;SDS011;3530;52.832;10.680;2024-02-16T10:57:12;2.90;;;2.70;;
6979;SDS011;3530;52.832;10.680;2024-02-16T10:59:58;2.90;;;2.70;;
6979;SDS011;3530;52.832;10.680;2024-02-16T11:02:54;2.35;;;2.20;;
6979;SDS011;3530;52.832;10.680;2024-02-16T11:05:41;2.58;;;2.22;;
6979;SDS011;3530;52.832;10.680;2024-02-16T11:08:37;2.10;;;2.00;;
6979;SDS011;3530;52.832;10.680;2024-02-16T11:11:23;2.65;;;2.40;;
6979;SDS011;3530;52.832;10.680;2024-02-16T11:14:15;2.58;;;2.38;;
6979;SDS011;3530;52.832;10.680;2024-02-16T11:17:02;2.53;;;2.42;;
6979;SDS011;3530;52.832;10.680;2024-02-16T11:19:53;2.00;;;1.90;;
6979;SDS011;3530;52.832;10.680;2024-02-16T11:22:39;2.90;;;2.13;;
6979;SDS011;3530;52.832;10.680;2024-02-16T11:25:31;2.25;;;2.15;;
6979;SDS011;3530;52.832;10.680;2024-02-16T11:28:17;2.47;;;2.28;;
6979;SDS011;3530;52.832;10.680;2024-02-16T11:31:04;2.45;;;2.28;;
6979;SDS011;3530;52.832;10.680;2024-02-16T11:33:50;2.30;;;2.10;;
6979;SDS011;3530;52.832;10.680;2024-02-16T11:36:36;3.80;;;2.25;;
6979;SDS011;3530;52.832;10.680;2024-02-16T11:39:21;2.72;;;2.53;;
6979;SDS011;3530;52.832;10.680;2024-02-16T11:42:08;3.53;;;2.58;;
6979;SDS011;3530;52.832;10.680;2024-02-16T11:44:57;2.97;;;2.28;;
6979;SDS011;3530;52.832;10.680;2024-02-16T11:47:43;2.20;;;2.08;;
6979;SDS011;3530;52.832;10.680;2024-02-16T11:50:29;2.70;;;2.53;;
6979;SDS011;3530;52.832;10.680;2024-02-16T11:53:17;2.10;;;1.90;;
6979;SDS011;3530;52.832;10.680;2024-02-16T11:56:04;2.63;;;2.05;;
6979;SDS011;3530;52.832;10.680;2024-02-16T11:58:50;2.28;;;2.17;;
6979;SDS011;3530;52.832;10.680;2024-02-16T12:01:36;2.83;;;2.10;;
6979;SDS011;3530;52.832;10.680;2024-02-16T12:07:14;4.75;;;2.33;;
6979;SDS011;3530;52.832;10.680;2024-02-16T12:10:00;4.60;;;2.30;;
6979;SDS011;3530;52.832;10.680;2024-02-16T12:12:47;3.47;;;2.38;;
6979;SDS011;3530;52.832;10.680;2024-02-16T12:15:33;2.35;;;2.13;;
6979;SDS011;3530;52.832;10.680;2024-02-16T12:18:19;3.50;;;2.13;;
6979;SDS011;3530;52.832;10.680;2024-02-16T12:21:06;6.80;;;2.80;;
6979;SDS011;3530;52.832;10.680;2024-02-16T12:23:51;2.78;;;2.38;;
6979;SDS011;3530;52.832;10.680;2024-02-16T12:26:37;2.88;;;2.40;;
6979;SDS011;3530;52.832;10.680;2024-02-16T12:29:23;5.07;;;2.47;;
6979;SDS011;3530;52.832;10.680;2024-02-16T12:32:08;3.20;;;2.20;;
6979;SDS011;3530;52.832;10.680;2024-02-16T12:34:57;2.25;;;2.05;;
6979;SDS011;3530;52.832;10.680;2024-02-16T12:37:43;4.10;;;2.30;;
6979;SDS011;3530;52.832;10.680;2024-02-16T12:40:28;2.75;;;2.55;;
6979;SDS011;3530;52.832;10.680;2024-02-16T12:43:14;2.33;;;2.17;;
6979;SDS011;3530;52.832;10.680;2024-02-16T12:46:00;2.47;;;2.20;;
6979;SDS011;3530;52.832;10.680;2024-02-16T12:48:47;2.78;;;2.03;;
6979;SDS011;3530;52.832;10.680;2024-02-16T12:51:33;2.28;;;2.08;;
6979;SDS011;3530;52.832;10.680;2024-02-16T12:54:18;4.93;;;2.58;;
6979;SDS011;3530;52.832;10.680;2024-02-16T12:57:04;2.40;;;2.20;;
6979;SDS011;3530;52.832;10.680;2024-02-16T12:59:57;2.10;;;2.00;;
6979;SDS011;3530;52.832;10.680;2024-02-16T13:02:43;2.72;;;2.47;;
6979;SDS011;3530;52.832;10.680;2024-02-16T13:05:29;2.13;;;2.03;;
6979;SDS011;3530;52.832;10.680;2024-02-16T13:08:17;3.20;;;2.28;;
6979;SDS011;3530;52.832;10.680;2024-02-16T13:11:03;2.10;;;2.00;;
6979;SDS011;3530;52.832;10.680;2024-02-16T13:13:48;2.63;;;2.38;;
6979;SDS011;3530;52.832;10.680;2024-02-16T13:16:34;2.53;;;2.33;;
6979;SDS011;3530;52.832;10.680;2024-02-16T13:19:20;2.38;;;2.28;;
6979;SDS011;3530;52.832;10.680;2024-02-16T13:22:05;2.08;;;1.98;;
6979;SDS011;3530;52.832;10.680;2024-02-16T13:24:51;6.60;;;2.75;;
6979;SDS011;3530;52.832;10.680;2024-02-16T13:27:37;4.18;;;2.53;;
6979;SDS011;3530;52.832;10.680;2024-02-16T13:30:22;2.63;;;2.42;;
6979;SDS011;3530;52.832;10.680;2024-02-16T13:33:08;2.60;;;2.38;;
6979;SDS011;3530;52.832;10.680;2024-02-16T13:35:54;2.30;;;2.13;;
6979;SDS011;3530;52.832;10.680;2024-02-16T13:38:40;2.42;;;2.30;;
6979;SDS011;3530;52.832;10.680;2024-02-16T13:41:26;4.50;;;2.47;;
6979;SDS011;3530;52.832;10.680;2024-02-16T13:44:11;2.95;;;2.35;;
6979;SDS011;3530;52.832;10.680;2024-02-16T13:46:57;3.10;;;2.20;;
6979;SDS011;3530;52.832;10.680;2024-02-16T13:49:43;2.45;;;2.28;;
6979;SDS011;3530;52.832;10.680;2024-02-16T13:52:28;3.17;;;2.08;;
6979;SDS011;3530;52.832;10.680;2024-02-16T13:55:14;3.22;;;2.70;;
6979;SDS011;3530;52.832;10.680;2024-02-16T13:58:00;3.05;;;2.75;;
6979;SDS011;3530;52.832;10.680;2024-02-16T14:00:45;3.83;;;3.30;;
6979;SDS011;3530;52.832;10.680;2024-02-16T14:03:31;3.65;;;3.03;;
6979;SDS011;3530;52.832;10.680;2024-02-16T14:06:17;5.63;;;4.70;;
6979;SDS011;3530;52.832;10.680;2024-02-16T14:09:03;4.97;;;4.55;;
6979;SDS011;3530;52.832;10.680;2024-02-16T14:11:54;5.63;;;5.13;;
6979;SDS011;3530;52.832;10.680;2024-02-16T14:14:43;5.97;;;3.97;;
6979;SDS011;3530;52.832;10.680;2024-02-16T14:17:29;8.45;;;6.60;;
6979;SDS011;3530;52.832;10.680;2024-02-16T14:20:14;5.30;;;4.78;;
6979;SDS011;3530;52.832;10.680;2024-02-16T14:23:00;15.88;;;9.73;;
6979;SDS011;3530;52.832;10.680;2024-02-16T14:25:48;7.47;;;5.15;;
6979;SDS011;3530;52.832;10.680;2024-02-16T14:28:33;27.38;;;15.40;;
6979;SDS011;3530;52.832;10.680;2024-02-16T14:31:19;19.90;;;11.48;;
6979;SDS011;3530;52.832;10.680;2024-02-16T14:34:05;6.90;;;5.40;;
6979;SDS011;3530;52.832;10.680;2024-02-16T14:36:51;13.52;;;7.85;;
6979;SDS011;3530;52.832;10.680;2024-02-16T14:39:36;10.32;;;5.82;;
6979;SDS011;3530;52.832;10.680;2024-02-16T14:42:23;8.02;;;6.03;;
6979;SDS011;3530;52.832;10.680;2024-02-16T14:45:09;8.45;;;5.28;;
6979;SDS011;3530;52.832;10.680;2024-02-16T14:48:04;8.02;;;5.95;;
6979;SDS011;3530;52.832;10.680;2024-02-16T14:50:50;21.80;;;10.50;;
6979;SDS011;3530;52.832;10.680;2024-02-16T14:53:38;18.73;;;9.13;;
6979;SDS011;3530;52.832;10.680;2024-02-16T14:56:23;9.88;;;6.95;;
6979;SDS011;3530;52.832;10.680;2024-02-16T14:59:09;17.67;;;9.77;;
6979;SDS011;3530;52.832;10.680;2024-02-16T15:01:55;11.60;;;6.93;;
6979;SDS011;3530;52.832;10.680;2024-02-16T15:04:41;11.32;;;6.97;;
6979;SDS011;3530;52.832;10.680;2024-02-16T15:07:27;10.27;;;8.02;;
6979;SDS011;3530;52.832;10.680;2024-02-16T15:10:13;8.73;;;5.93;;
6979;SDS011;3530;52.832;10.680;2024-02-16T15:12:58;8.90;;;6.47;;
6979;SDS011;3530;52.832;10.680;2024-02-16T15:15:44;10.75;;;6.63;;
6979;SDS011;3530;52.832;10.680;2024-02-16T15:18:29;8.25;;;6.28;;
6979;SDS011;3530;52.832;10.680;2024-02-16T15:21:15;6.93;;;5.50;;
6979;SDS011;3530;52.832;10.680;2024-02-16T15:24:01;10.25;;;5.68;;
6979;SDS011;3530;52.832;10.680;2024-02-16T15:26:46;8.45;;;6.22;;
6979;SDS011;3530;52.832;10.680;2024-02-16T15:29:32;9.80;;;4.93;;
6979;SDS011;3530;52.832;10.680;2024-02-16T15:32:18;6.28;;;5.65;;
6979;SDS011;3530;52.832;10.680;2024-02-16T15:35:04;7.00;;;4.55;;
6979;SDS011;3530;52.832;10.680;2024-02-16T15:37:50;6.05;;;4.82;;
6979;SDS011;3530;52.832;10.680;2024-02-16T15:40:35;8.25;;;5.55;;
6979;SDS011;3530;52.832;10.680;2024-02-16T15:43:21;10.07;;;7.38;;
6979;SDS011;3530;52.832;10.680;2024-02-16T15:46:07;8.52;;;5.53;;
6979;SDS011;3530;52.832;10.680;2024-02-16T15:48:52;9.10;;;6.38;;
6979;SDS011;3530;52.832;10.680;2024-02-16T15:51:38;8.38;;;5.38;;
6979;SDS011;3530;52.832;10.680;2024-02-16T15:54:24;10.27;;;7.82;;
6979;SDS011;3530;52.832;10.680;2024-02-16T15:57:11;7.00;;;6.10;;
6979;SDS011;3530;52.832;10.680;2024-02-16T15:59:57;5.93;;;4.97;;
6979;SDS011;3530;52.832;10.680;2024-02-16T16:02:43;8.00;;;6.63;;
6979;SDS011;3530;52.832;10.680;2024-02-16T16:05:29;9.68;;;5.60;;
6979;SDS011;3530;52.832;10.680;2024-02-16T16:08:18;4.60;;;4.00;;
6979;SDS011;3530;52.832;10.680;2024-02-16T16:11:06;9.05;;;5.53;;
6979;SDS011;3530;52.832;10.680;2024-02-16T16:13:52;9.45;;;7.28;;
6979;SDS011;3530;52.832;10.680;2024-02-16T16:16:37;11.15;;;5.82;;
6979;SDS011;3530;52.832;10.680;2024-02-16T16:19:23;8.50;;;5.85;;
6979;SDS011;3530;52.832;10.680;2024-02-16T16:22:09;7.53;;;5.95;;
6979;SDS011;3530;52.832;10.680;2024-02-16T16:24:55;10.73;;;6.25;;
6979;SDS011;3530;52.832;10.680;2024-02-16T16:27:43;9.70;;;6.05;;
6979;SDS011;3530;52.832;10.680;2024-02-16T16:30:31;9.15;;;6.15;;
6979;SDS011;3530;52.832;10.680;2024-02-16T16:33:16;9.25;;;5.80;;
6979;SDS011;3530;52.832;10.680;2024-02-16T16:36:03;6.93;;;6.15;;
6979;SDS011;3530;52.832;10.680;2024-02-16T16:38:52;7.25;;;6.18;;
6979;SDS011;3530;52.832;10.680;2024-02-16T16:41:38;7.53;;;6.30;;
6979;SDS011;3530;52.832;10.680;2024-02-16T16:44:24;6.57;;;5.75;;
6979;SDS011;3530;52.832;10.680;2024-02-16T16:47:10;4.70;;;4.20;;
6979;SDS011;3530;52.832;10.680;2024-02-16T16:49:57;9.45;;;6.97;;
6979;SDS011;3530;52.832;10.680;2024-02-16T16:52:43;10.90;;;7.03;;
6979;SDS011;3530;52.832;10.680;2024-02-16T16:55:29;7.50;;;5.95;;
6979;SDS011;3530;52.832;10.680;2024-02-16T16:58:14;8.98;;;7.55;;
6979;SDS011;3530;52.832;10.680;2024-02-16T17:01:00;7.15;;;5.78;;